^^
Station Historical Data
Daily Summary for February 3, 2018 Units:  English    Metric   Both
« Previous Day
Next Day »
Daily Weekly Monthly Yearly Custom
  High: Low: Average:
Temperature: TemperatureF °F 72.9 °F 77.7 °F
Dew Point: DewpointF °F 49.5 °F 51.6 °F
Humidity: Humidity% 30% 40%
Wind Speed: WindSpeedMPHmph -999.9mph -14.4mph
Wind Gust: WindSpeedGustMPHmph - -
Wind- -
Pressure: PressureIn in 29.53 in -
Precipitation: 0.00 in    
Historical Graphs
 
 
Tabular Data for February 3, 2018
Time Temperature Dew Point Pressure Wind Wind Speed Wind Gust Humidity Rainfall Rate (Hourly) solar Conditions
TemperatureF °F DewpointF °F PressureIn in Calm     Humidity% HourlyPrecipIn in SoftwareType W/m2 Conditions
08:32 74.5 °F 51.1 °F 29.61 in NNE 8.1 mph 9.0 mph 44% 0.00 in meteobridge W/m2
08:38 75.0 °F 51.1 °F 29.62 in East 0.9 mph 3.0 mph 43% 0.00 in meteobridge W/m2
08:45 75.6 °F 50.2 °F 29.62 in NNE 4.9 mph 10.0 mph 41% 0.00 in meteobridge W/m2
08:51 75.4 °F 49.5 °F 29.63 in NNE 2.0 mph 7.0 mph 40% 0.00 in meteobridge W/m2
08:57 75.4 °F 50.0 °F 29.63 in North 4.9 mph 7.0 mph 41% 0.00 in meteobridge W/m2
09:03 75.6 °F 50.2 °F 29.63 in NNE 4.0 mph 4.0 mph 41% 0.00 in meteobridge W/m2
09:09 76.1 °F 50.0 °F 29.63 in North 6.9 mph 9.0 mph 40% 0.00 in meteobridge W/m2
09:15 76.3 °F 49.5 °F 29.63 in Calm   5.0 mph 39% 0.00 in meteobridge W/m2
09:21 76.5 °F 50.4 °F 29.63 in NNW 2.9 mph 4.0 mph 40% 0.00 in meteobridge W/m2
09:27 76.3 °F 50.2 °F 29.64 in NE 0.9 mph 6.0 mph 40% 0.00 in meteobridge W/m2
09:33 77.0 °F 50.2 °F 29.63 in North 10.1 mph 13.0 mph 39% 0.00 in meteobridge W/m2
09:39 77.0 °F 50.2 °F 29.64 in North 6.9 mph 7.0 mph 39% 0.00 in meteobridge W/m2
09:45 77.2 °F 50.4 °F 29.64 in North 4.9 mph 11.0 mph 39% 0.00 in meteobridge W/m2
09:52 77.7 °F 50.0 °F 29.64 in East 4.0 mph 5.0 mph 38% 0.00 in meteobridge W/m2
09:58 78.6 °F 50.9 °F 29.63 in ENE 4.0 mph 7.0 mph 38% 0.00 in meteobridge W/m2
10:04 79.0 °F 51.3 °F 29.63 in NE 12.1 mph 12.1 mph 38% 0.00 in meteobridge W/m2
10:10 78.6 °F 50.9 °F 29.64 in NNW 6.0 mph 15.0 mph 38% 0.00 in meteobridge W/m2
10:16 78.3 °F 50.5 °F 29.63 in North 17.0 mph 17.0 mph 38% 0.00 in meteobridge W/m2
10:22 76.5 °F 50.4 °F 29.64 in NNW 10.1 mph 12.0 mph 40% 0.00 in meteobridge W/m2
10:28 77.2 °F 51.1 °F 29.64 in NE 8.9 mph 15.0 mph 40% 0.00 in meteobridge W/m2
10:35 78.6 °F 50.9 °F 29.64 in NNE 12.1 mph 16.0 mph 38% 0.00 in meteobridge W/m2
10:41 77.7 °F 50.7 °F 29.64 in NNW 6.0 mph 14.0 mph 39% 0.00 in meteobridge W/m2
10:47 77.7 °F 50.7 °F 29.64 in North 8.9 mph 11.0 mph 39% 0.00 in meteobridge W/m2
10:53 77.4 °F 50.5 °F 29.64 in NNE 6.0 mph 7.0 mph 39% 0.00 in meteobridge W/m2
10:59 78.3 °F 51.3 °F 29.64 in NNE 11.0 mph 18.0 mph 39% 0.00 in meteobridge W/m2
11:05 79.0 °F 52.0 °F 29.64 in NE 2.0 mph 10.0 mph 39% 0.00 in meteobridge W/m2
11:11 80.8 °F 51.3 °F 29.64 in North 6.9 mph 14.0 mph 36% 0.00 in meteobridge W/m2
11:18 79.9 °F 51.3 °F 29.64 in NNE 10.1 mph 12.0 mph 37% 0.00 in meteobridge W/m2
11:24 80.4 °F 51.8 °F 29.63 in NNE 10.1 mph 10.1 mph 37% 0.00 in meteobridge W/m2
11:38 81.1 °F 51.6 °F 29.62 in NNE 12.1 mph 12.1 mph 36% 0.00 in meteobridge W/m2
11:46 81.9 °F 51.4 °F 29.63 in North 8.9 mph 9.0 mph 35% 0.00 in meteobridge W/m2
11:53 81.1 °F 51.6 °F 29.62 in NNE 14.1 mph 18.0 mph 36% 0.00 in meteobridge W/m2
11:59 81.0 °F 51.4 °F 29.62 in NE 8.9 mph 14.0 mph 36% 0.00 in meteobridge W/m2
12:05 81.7 °F 52.2 °F 29.62 in NNE 4.9 mph 11.0 mph 36% 0.00 in meteobridge W/m2
12:11 81.1 °F 51.6 °F 29.62 in NNW 8.9 mph 13.0 mph 36% 0.00 in meteobridge W/m2
12:17 80.1 °F 51.4 °F 29.62 in ENE 4.0 mph 7.0 mph 37% 0.00 in meteobridge W/m2
12:23 81.3 °F 51.1 °F 29.61 in NNE 10.1 mph 17.0 mph 35% 0.00 in meteobridge W/m2
12:29 80.4 °F 51.1 °F 29.61 in NE 6.9 mph 12.0 mph 36% 0.00 in meteobridge W/m2
12:35 79.9 °F 51.3 °F 29.61 in SE 2.9 mph 4.0 mph 37% 0.00 in meteobridge W/m2
12:41 80.8 °F 51.3 °F 29.60 in North 12.1 mph 16.0 mph 36% 0.00 in meteobridge W/m2
12:48 82.2 °F 51.8 °F 29.60 in NNE 6.9 mph 15.0 mph 35% 0.00 in meteobridge W/m2
12:54 83.1 °F 51.8 °F 29.59 in ESE 2.9 mph 6.0 mph 34% 0.00 in meteobridge W/m2
13:00 84.7 °F 51.6 °F 29.59 in NW 4.9 mph 16.0 mph 32% 0.00 in meteobridge W/m2
13:06 84.9 °F 51.8 °F 29.59 in NNE 4.0 mph 9.0 mph 32% 0.00 in meteobridge W/m2
13:12 84.7 °F 51.6 °F 29.59 in NE 11.0 mph 14.0 mph 32% 0.00 in meteobridge W/m2
13:18 84.0 °F 50.9 °F 29.59 in East 2.9 mph 6.0 mph 32% 0.00 in meteobridge W/m2
13:24 84.7 °F 51.6 °F 29.58 in South 6.9 mph 10.0 mph 32% 0.00 in meteobridge W/m2
13:30 84.9 °F 51.8 °F 29.58 in North 8.9 mph 15.0 mph 32% 0.00 in meteobridge W/m2
13:39 83.7 °F 51.4 °F 29.58 in North 8.9 mph 13.0 mph 33% 0.00 in meteobridge W/m2
13:45 83.5 °F 51.4 °F 29.57 in Calm   3.0 mph 33% 0.00 in meteobridge W/m2
13:51 84.2 °F 51.1 °F 29.57 in North 4.0 mph 12.0 mph 32% 0.00 in meteobridge W/m2
13:57 83.7 °F 50.7 °F 29.57 in ENE 0.9 mph 10.0 mph 32% 0.00 in meteobridge W/m2
14:03 83.5 °F 51.4 °F 29.57 in ENE 6.0 mph 11.0 mph 33% 0.00 in meteobridge W/m2
14:09 82.9 °F 50.9 °F 29.57 in NNE 6.0 mph 13.0 mph 33% 0.00 in meteobridge W/m2
14:15 82.9 °F 51.6 °F 29.56 in NNE 4.9 mph 7.0 mph 34% 0.00 in meteobridge W/m2
14:22 82.8 °F 50.7 °F 29.55 in NE 4.0 mph 16.0 mph 33% 0.00 in meteobridge W/m2
14:28 82.9 °F 50.9 °F 29.55 in NNE 6.9 mph 11.0 mph 33% 0.00 in meteobridge W/m2
14:34 83.7 °F 50.7 °F 29.54 in NNE 4.9 mph 10.0 mph 32% 0.00 in meteobridge W/m2
14:40 85.6 °F 51.6 °F 29.54 in NNE 4.9 mph 7.0 mph 31% 0.00 in meteobridge W/m2
14:46 86.5 °F 51.4 °F 29.54 in East 8.9 mph 10.0 mph 30% 0.00 in meteobridge W/m2
14:52 85.5 °F 52.2 °F 29.54 in NE 4.0 mph 7.0 mph 32% 0.00 in meteobridge W/m2
14:58 84.4 °F 51.3 °F 29.54 in North 13.0 mph 14.0 mph 32% 0.00 in meteobridge W/m2
15:04 82.2 °F 52.5 °F 29.54 in ENE 6.0 mph 16.0 mph 36% 0.00 in meteobridge W/m2
15:10 79.7 °F 54.0 °F 29.54 in ENE 4.9 mph 16.0 mph 41% 0.00 in meteobridge W/m2
15:16 78.3 °F 53.2 °F 29.54 in ENE 2.0 mph 6.0 mph 42% 0.00 in meteobridge W/m2
15:22 77.9 °F 52.9 °F 29.54 in ENE 6.0 mph 6.0 mph 42% 0.00 in meteobridge W/m2
15:28 78.1 °F 52.5 °F 29.54 in NE 2.0 mph 10.0 mph 41% 0.00 in meteobridge W/m2
15:34 78.3 °F 53.2 °F 29.53 in NE 0.9 mph 4.0 mph 42% 0.00 in meteobridge W/m2
15:40 78.3 °F 54.0 °F 29.54 in ENE 2.0 mph 6.0 mph 43% 0.00 in meteobridge W/m2
15:47 76.5 °F 54.7 °F 29.55 in NNE 10.1 mph 13.0 mph 47% 0.00 in meteobridge W/m2
15:53 75.0 °F 55.6 °F 29.54 in NE 6.9 mph 11.0 mph 51% 0.00 in meteobridge W/m2
16:11 74.1 °F 55.4 °F 29.55 in NE 2.0 mph 4.0 mph 52% 0.00 in meteobridge W/m2
16:17 74.1 °F 54.3 °F 29.54 in SSW 2.9 mph 6.0 mph 50% 0.00 in meteobridge W/m2
16:36 73.6 °F 56.5 °F 29.54 in Calm   1.0 mph 55% 0.00 in meteobridge W/m2
16:42 73.8 °F 55.0 °F 29.54 in SSW 2.0 mph 6.0 mph 52% 0.00 in meteobridge W/m2
16:48 74.5 °F 54.7 °F 29.53 in Calm   4.0 mph 50% 0.00 in meteobridge W/m2
16:54 75.2 °F 54.7 °F 29.53 in Calm   1.0 mph 49% 0.00 in meteobridge W/m2
17:01 75.7 °F 54.1 °F 29.53 in Calm     47% 0.00 in meteobridge W/m2
17:07 75.9 °F 54.9 °F 29.53 in SSE 0.9 mph 2.0 mph 48% 0.00 in meteobridge W/m2
17:13 76.1 °F 55.6 °F 29.54 in SSE 2.9 mph 5.0 mph 49% 0.00 in meteobridge W/m2
17:19 76.1 °F 55.6 °F 29.54 in SSE 2.9 mph 6.0 mph 49% 0.00 in meteobridge W/m2
17:25 75.9 °F 54.9 °F 29.54 in SSE 2.0 mph 6.0 mph 48% 0.00 in meteobridge W/m2
17:32 75.9 °F 54.9 °F 29.55 in SE 6.0 mph 6.0 mph 48% 0.00 in meteobridge W/m2
17:38 75.7 °F 54.1 °F 29.55 in SE 2.0 mph 7.0 mph 47% 0.00 in meteobridge W/m2
17:44 75.4 °F 55.4 °F 29.54 in SSE 4.9 mph 9.0 mph 50% 0.00 in meteobridge W/m2
17:50 75.0 °F 55.0 °F 29.54 in South 4.9 mph 9.0 mph 50% 0.00 in meteobridge W/m2
17:56 74.8 °F 55.0 °F 29.54 in South 4.0 mph 7.0 mph 50% 0.00 in meteobridge W/m2
18:02 74.5 °F 54.7 °F 29.54 in South 2.0 mph 3.0 mph 50% 0.00 in meteobridge W/m2
18:08 74.7 °F 55.4 °F 29.55 in South 6.0 mph 12.0 mph 51% 0.00 in meteobridge W/m2
18:14 74.1 °F 53.8 °F 29.55 in SSE 2.9 mph 5.0 mph 49% 0.00 in meteobridge W/m2
18:37 73.8 °F 52.9 °F 29.56 in South 6.0 mph 8.0 mph 48% 0.00 in meteobridge W/m2
18:43 73.8 °F 52.9 °F 29.57 in SSE 4.0 mph 12.0 mph 48% 0.00 in meteobridge W/m2
18:49 73.6 °F 52.7 °F 29.57 in South 6.0 mph 10.0 mph 48% 0.00 in meteobridge W/m2
18:55 73.0 °F 52.7 °F 29.57 in South 6.9 mph 12.0 mph 49% 0.00 in meteobridge W/m2
19:01 72.9 °F 52.0 °F 29.57 in SSE 0.9 mph 7.0 mph 48% 0.00 in meteobridge W/m2
19:07 73.0 °F 52.2 °F 29.57 in South 4.0 mph 9.0 mph 48% 0.00 in meteobridge W/m2
19:13 73.2 °F 51.3 °F 29.57 in SSE 8.9 mph 12.0 mph 46% 0.00 in meteobridge W/m2
19:35 73.0 °F 51.6 °F 29.58 in SE 2.9 mph -999.0 mph 47% 0.00 in meteobridge W/m2
19:42 73.0 °F 51.6 °F 29.59 in North -999.9 mph -999.0 mph 47% 0.00 in meteobridge W/m2
19:46 73.0 °F 51.6 °F 29.59 in North -999.9 mph -999.0 mph 47% 0.00 in meteobridge W/m2
Regenstein, Windhoek, Namibia
Compliments of Weather Underground - 2.5 mb